Terminal Aerodrome Forecast
Issued by NWS Cleveland, OH

Home | Current Version | Previous Version | Graphics & Text | Print | Product List | Glossary On
Versions: 1 2 3 4 5 6 7 8 9 10 11 12 13 14 15 16 17 18 19 20
000
FTUS41 KCLE 231700
TAFERI
TAF
KERI 231740Z 2318/2418 16012KT P6SM OVC035
     FM232200 15008KT P6SM BKN020
     FM240800 16007KT 4SM -SHRA BR OVC015
     FM241000 14010KT 4SM -SHRA BR OVC009=

USA.gov is the U.S. government's official web portal to all federal, state and local government web resources and services.